Terminal Aerodrome Forecast
Issued by NWS Twin Cities, MN

Home | Current Version | Previous Version | Text Only | Print | Product List | Glossary Off
Versions: 1 2 3 4 5 6 7 8 9 10 11 12 13 14 15 16 17 18 19 20 21 22

000
FTUS43 KMPX 191146
TAFSTC
TAF
KSTC 191146Z 1912/2012 16005KT 1/4SM FG VV002
     FM191300 16006KT 6SM BR SKC
     FM192100 17007KT 5SM BR OVC010
     FM200200 16006KT 1SM BR OVC005
     FM200800 14005KT 1/4SM -DZ FG VV002=

USA.gov is the U.S. government's official web portal to all federal, state and local government web resources and services.